Time;durP1;ratioP1;P1;durP2;ratioP2;P2;SDS_P1;SDS_P2;PMS_P1;PMS_P2;Temp;Humidity;BMP_temperature;BMP_pressure;BME280_temperature;BME280_humidity;BME280_pressure;Samples;Min_cycle;Max_cycle;Signal;HPM_P1;HPM_P2
2024/01/13 00:01:13;;;;;;;21.77;7.20;;;-1.30;98.00;;;;;;5129507;27;20447;-67
2024/01/13 00:03:40;;;;;;;22.57;7.63;;;-1.30;98.00;;;;;;5129212;27;20452;-67
2024/01/13 00:06:08;;;;;;;17.50;5.67;;;-1.40;98.00;;;;;;5129399;27;20933;-67
2024/01/13 00:11:12;;;;;;;24.47;6.70;;;-1.30;98.00;;;;;;5120993;22;20479;-67
2024/01/13 00:13:39;;;;;;;27.27;6.40;;;-1.40;98.00;;;;;;5067803;28;20455;-66
2024/01/13 00:16:06;;;;;;;21.50;7.00;;;-1.40;98.00;;;;;;5066965;28;20485;-67
2024/01/13 00:18:33;;;;;;;28.83;6.37;;;-1.30;98.00;;;;;;5067031;28;20447;-66
2024/01/13 00:21:00;;;;;;;25.40;7.13;;;-1.20;98.00;;;;;;5049594;28;20446;-66
2024/01/13 00:23:27;;;;;;;21.17;6.40;;;-1.30;98.00;;;;;;5067347;28;20456;-66
2024/01/13 00:25:54;;;;;;;20.63;6.47;;;-1.30;98.00;;;;;;5065759;28;20812;-66
2024/01/13 00:28:25;;;;;;;33.37;7.67;;;-1.40;98.00;;;;;;5053523;28;20460;-66
2024/01/13 00:30:52;;;;;;;26.73;7.17;;;-1.40;98.00;;;;;;5019602;28;20455;-66
2024/01/13 00:33:19;;;;;;;22.83;7.70;;;-1.30;98.00;;;;;;5053715;28;20447;-66
2024/01/13 00:35:47;;;;;;;25.23;7.00;;;-1.30;98.00;;;;;;5053733;28;20484;-66
2024/01/13 00:38:14;;;;;;;21.13;6.40;;;-1.30;98.00;;;;;;5035999;28;20454;-66
2024/01/13 00:40:41;;;;;;;23.50;7.30;;;-1.20;98.00;;;;;;5053783;28;20913;-66
2024/01/13 00:43:08;;;;;;;21.33;6.83;;;-1.20;98.00;;;;;;5053351;28;20451;-66
2024/01/13 00:45:37;;;;;;;34.23;7.90;;;-1.30;98.00;;;;;;5053483;28;20511;-67
2024/01/13 00:48:05;;;;;;;22.40;6.70;;;-1.30;98.00;;;;;;5052966;28;20467;-66
2024/01/13 00:50:35;;;;;;;30.80;8.00;;;-1.30;98.00;;;;;;5053377;28;20447;-66
2024/01/13 00:53:02;;;;;;;21.40;7.07;;;-1.20;98.00;;;;;;5053408;28;20855;-66
2024/01/13 00:55:29;;;;;;;20.40;7.53;;;-1.10;98.00;;;;;;5053296;28;20524;-66
2024/01/13 00:57:56;;;;;;;25.33;8.40;;;-1.20;98.00;;;;;;5053028;28;20456;-66
2024/01/13 01:00:23;;;;;;;23.13;7.97;;;-1.20;98.00;;;;;;5053139;28;20464;-66
2024/01/13 01:02:51;;;;;;;24.83;6.93;;;-1.30;98.00;;;;;;5053227;28;20456;-66
2024/01/13 01:05:18;;;;;;;27.23;7.10;;;-1.40;98.00;;;;;;5053123;28;20794;-66
2024/01/13 01:07:47;;;;;;;23.40;7.60;;;-1.40;98.00;;;;;;5053120;28;20467;-66
2024/01/13 01:10:14;;;;;;;24.17;7.80;;;-1.30;98.00;;;;;;5052975;28;20904;-66
2024/01/13 01:12:42;;;;;;;24.90;7.97;;;-1.20;98.00;;;;;;5053064;28;20449;-67
2024/01/13 01:15:10;;;;;;;24.67;7.27;;;-1.10;98.00;;;;;;5052830;28;20504;-66
2024/01/13 01:17:40;;;;;;;24.50;7.53;;;-1.30;98.00;;;;;;5052736;28;20452;-66
2024/01/13 01:20:10;;;;;;;24.97;7.80;;;-1.30;98.00;;;;;;5034885;28;20487;-66
2024/01/13 01:22:37;;;;;;;26.03;7.47;;;-1.30;98.00;;;;;;5053060;28;20450;-66
2024/01/13 01:25:06;;;;;;;26.63;8.27;;;-1.20;98.00;;;;;;5034946;28;20451;-66
2024/01/13 01:27:33;;;;;;;26.37;8.30;;;-1.10;98.00;;;;;;5052789;28;20455;-66
2024/01/13 01:30:01;;;;;;;28.43;7.63;;;-1.10;98.00;;;;;;5052795;28;20455;-66
2024/01/13 01:32:28;;;;;;;26.43;7.67;;;-1.10;98.00;;;;;;5034469;28;20476;-66
2024/01/13 01:34:55;;;;;;;27.40;7.80;;;-1.10;98.00;;;;;;5052501;28;20451;-67
2024/01/13 01:37:24;;;;;;;21.37;8.60;;;-1.10;98.00;;;;;;5034879;28;20507;-66
2024/01/13 01:39:51;;;;;;;25.63;6.63;;;-1.20;98.00;;;;;;5051953;28;21010;-66
2024/01/13 01:42:18;;;;;;;28.47;7.73;;;-1.10;98.00;;;;;;5052793;28;20458;-66
2024/01/13 01:44:46;;;;;;;29.57;8.20;;;-1.10;98.00;;;;;;5052774;28;20950;-66
2024/01/13 01:47:14;;;;;;;26.07;7.80;;;-1.00;98.00;;;;;;5034458;28;20463;-66
2024/01/13 01:49:41;;;;;;;27.67;8.83;;;-0.80;98.00;;;;;;5052376;28;20483;-66
2024/01/13 01:52:09;;;;;;;22.60;8.47;;;-0.90;98.00;;;;;;5052194;28;20462;-66
2024/01/13 01:54:37;;;;;;;22.83;7.60;;;-1.10;98.00;;;;;;5052301;28;20982;-66
2024/01/13 01:57:05;;;;;;;29.13;8.60;;;-1.10;98.00;;;;;;5051939;28;20504;-66
2024/01/13 01:59:32;;;;;;;25.50;7.60;;;-1.10;98.00;;;;;;5052111;28;20485;-66
2024/01/13 02:02:01;;;;;;;25.60;8.57;;;-1.20;98.00;;;;;;5034359;28;20443;-66
2024/01/13 02:04:28;;;;;;;36.53;9.70;;;-1.20;98.00;;;;;;5051803;28;20980;-66
2024/01/13 02:06:55;;;;;;;30.67;8.43;;;-1.30;98.00;;;;;;5051972;28;20445;-66
2024/01/13 02:09:23;;;;;;;27.03;7.70;;;-1.20;98.00;;;;;;5051660;28;20468;-66
2024/01/13 02:11:52;;;;;;;25.43;7.70;;;-1.20;98.00;;;;;;5051760;28;20655;-66
2024/01/13 02:14:19;;;;;;;25.00;8.00;;;-1.20;98.00;;;;;;5034095;28;20460;-66
2024/01/13 02:16:46;;;;;;;38.20;9.40;;;-1.20;98.00;;;;;;5051789;28;20933;-66
2024/01/13 02:19:13;;;;;;;27.40;8.50;;;-1.10;98.00;;;;;;5051641;28;20462;-66
2024/01/13 02:21:41;;;;;;;31.33;9.50;;;-1.20;98.00;;;;;;5051796;28;20804;-66
2024/01/13 02:24:08;;;;;;;29.33;8.67;;;-1.30;98.00;;;;;;5051608;28;20450;-66
2024/01/13 02:26:41;;;;;;;23.83;7.43;;;-1.20;98.00;;;;;;5051717;28;20461;-66
2024/01/13 02:29:08;;;;;;;32.23;9.67;;;-1.30;98.00;;;;;;5253966;22;20469;-69
2024/01/13 02:31:36;;;;;;;29.70;8.47;;;-1.20;98.00;;;;;;5014016;28;20824;-67
2024/01/13 02:34:03;;;;;;;26.07;8.30;;;-1.20;98.00;;;;;;5030711;28;20461;-66
2024/01/13 02:36:30;;;;;;;32.13;9.90;;;-1.30;98.00;;;;;;5031383;28;20485;-66
2024/01/13 02:39:06;;;;;;;32.47;8.43;;;-1.10;98.00;;;;;;5031421;28;20996;-67
2024/01/13 02:41:39;;;;;;;32.43;8.63;;;-1.20;98.00;;;;;;5031598;28;20479;-67
2024/01/13 02:44:06;;;;;;;28.20;9.43;;;-1.20;98.00;;;;;;5013557;28;20461;-67
2024/01/13 02:46:33;;;;;;;27.17;8.30;;;-1.30;98.00;;;;;;5031321;28;20466;-66
2024/01/13 02:49:02;;;;;;;38.13;7.90;;;-1.40;98.00;;;;;;5031002;28;20456;-66
2024/01/13 02:51:30;;;;;;;36.17;9.87;;;-1.40;98.00;;;;;;5030032;28;20455;-67
2024/01/13 02:53:59;;;;;;;32.73;9.00;;;-1.40;98.00;;;;;;5031401;28;20457;-66
2024/01/13 02:56:33;;;;;;;27.80;8.80;;;-1.60;98.00;;;;;;5031262;28;20488;-66
2024/01/13 02:59:00;;;;;;;27.40;8.80;;;-1.60;98.00;;;;;;5030738;28;20454;-67
2024/01/13 03:01:30;;;;;;;37.13;9.50;;;-1.60;98.00;;;;;;5031526;28;20460;-67
2024/01/13 03:03:57;;;;;;;26.50;8.80;;;-1.70;98.00;;;;;;5031331;28;20517;-66
2024/01/13 03:06:25;;;;;;;24.33;8.00;;;-1.70;98.00;;;;;;5031463;28;20456;-67
2024/01/13 03:08:52;;;;;;;37.77;8.60;;;-1.60;98.00;;;;;;5031008;28;20453;-66
2024/01/13 03:11:21;;;;;;;39.30;9.67;;;-1.30;98.00;;;;;;5031091;28;20843;-66
2024/01/13 03:13:48;;;;;;;37.47;11.17;;;-1.10;98.00;;;;;;5031262;28;20446;-66
2024/01/13 03:16:15;;;;;;;33.90;9.37;;;-1.00;98.00;;;;;;5031092;28;20480;-66
2024/01/13 03:18:43;;;;;;;34.83;10.27;;;-0.90;98.00;;;;;;5030694;28;20796;-66
2024/01/13 03:21:13;;;;;;;26.20;8.77;;;-0.90;98.00;;;;;;5030628;28;20953;-66
2024/01/13 03:23:40;;;;;;;30.43;7.77;;;-0.90;98.00;;;;;;5013184;28;20450;-66
2024/01/13 03:26:07;;;;;;;28.50;9.43;;;-0.90;98.00;;;;;;5034021;28;20840;-67
2024/01/13 03:28:35;;;;;;;37.23;9.27;;;-0.90;98.00;;;;;;5032154;28;20465;-66
2024/01/13 03:31:02;;;;;;;33.27;9.13;;;-0.80;98.00;;;;;;5050717;28;20470;-67
2024/01/13 03:33:30;;;;;;;27.40;8.47;;;-0.70;98.00;;;;;;5050701;28;20491;-66
2024/01/13 03:35:57;;;;;;;31.70;8.87;;;-0.80;98.00;;;;;;5050639;28;20535;-66
2024/01/13 03:38:26;;;;;;;31.07;8.30;;;-0.90;98.00;;;;;;5050398;28;20455;-67
2024/01/13 03:40:53;;;;;;;29.77;9.23;;;-1.00;98.00;;;;;;5050819;28;20483;-66
2024/01/13 03:43:21;;;;;;;36.30;10.23;;;-1.10;98.00;;;;;;5032796;28;20463;-67
2024/01/13 03:45:49;;;;;;;33.30;8.50;;;-1.00;98.00;;;;;;5050530;28;20479;-66
2024/01/13 03:48:16;;;;;;;33.37;8.83;;;-1.20;98.00;;;;;;5050354;28;20451;-66
2024/01/13 03:50:44;;;;;;;25.77;7.43;;;-1.20;98.00;;;;;;5050378;28;20450;-66
2024/01/13 03:53:11;;;;;;;28.20;9.27;;;-1.10;98.00;;;;;;5032719;28;20490;-66
2024/01/13 03:55:38;;;;;;;28.70;9.40;;;-1.10;98.00;;;;;;5050428;28;20457;-67
2024/01/13 03:58:06;;;;;;;35.23;9.80;;;-1.00;98.00;;;;;;5050420;28;20456;-67
2024/01/13 04:00:35;;;;;;;29.87;8.63;;;-0.90;98.00;;;;;;5050550;28;20463;-66
2024/01/13 04:03:04;;;;;;;33.53;8.30;;;-1.00;98.00;;;;;;5053278;28;20485;-66
2024/01/13 04:05:31;;;;;;;35.13;9.07;;;-0.90;98.00;;;;;;5054327;28;20456;-66
2024/01/13 04:07:58;;;;;;;30.93;9.00;;;-0.90;98.00;;;;;;5054024;28;20510;-66
2024/01/13 04:10:26;;;;;;;30.47;8.40;;;-0.80;98.00;;;;;;5054120;28;20805;-66
2024/01/13 04:12:53;;;;;;;33.27;8.97;;;-0.80;98.00;;;;;;5036409;28;20800;-66
2024/01/13 04:15:19;;;;;;;31.90;9.33;;;-0.90;98.00;;;;;;5053943;28;20449;-66
2024/01/13 04:17:46;;;;;;;31.60;8.90;;;-1.00;98.00;;;;;;5053714;28;20574;-66
2024/01/13 04:20:14;;;;;;;33.07;9.13;;;-1.10;98.00;;;;;;5054253;28;20455;-66
2024/01/13 04:22:41;;;;;;;26.97;8.77;;;-1.10;98.00;;;;;;5053871;28;21003;-66
2024/01/13 04:25:08;;;;;;;27.33;8.60;;;-0.90;98.00;;;;;;5053660;28;20448;-66
2024/01/13 04:27:35;;;;;;;22.97;7.20;;;-0.90;98.00;;;;;;5053704;28;20458;-66
2024/01/13 04:30:02;;;;;;;25.90;7.50;;;-0.90;98.00;;;;;;5053798;28;20886;-67
2024/01/13 04:32:30;;;;;;;22.77;8.20;;;-1.00;98.00;;;;;;5053636;28;20459;-66
2024/01/13 04:34:57;;;;;;;25.07;8.23;;;-1.20;98.00;;;;;;5036202;28;20452;-66
2024/01/13 04:37:26;;;;;;;24.00;7.50;;;-1.20;98.00;;;;;;5052239;28;20510;-66
2024/01/13 04:39:53;;;;;;;19.47;7.60;;;-1.30;98.00;;;;;;5053481;28;20479;-66
2024/01/13 04:42:20;;;;;;;30.00;9.13;;;-1.30;98.00;;;;;;5053468;28;20459;-66
2024/01/13 04:44:47;;;;;;;21.53;7.10;;;-1.20;98.00;;;;;;5053456;28;20877;-66
2024/01/13 04:47:14;;;;;;;32.30;9.60;;;-1.20;98.00;;;;;;5053358;28;20818;-67
2024/01/13 04:49:41;;;;;;;26.67;8.57;;;-1.10;98.00;;;;;;5035664;28;20456;-66
2024/01/13 04:52:08;;;;;;;29.17;8.60;;;-1.20;98.00;;;;;;5053407;28;20863;-67
2024/01/13 04:54:37;;;;;;;21.60;8.50;;;-1.40;98.00;;;;;;5035772;28;20451;-66
2024/01/13 04:57:05;;;;;;;24.43;8.73;;;-1.40;98.00;;;;;;5053252;28;20489;-67
2024/01/13 04:59:32;;;;;;;20.97;7.97;;;-1.50;98.00;;;;;;5053530;28;20460;-66
2024/01/13 05:01:59;;;;;;;27.30;7.53;;;-1.40;98.00;;;;;;5053502;28;20821;-66
2024/01/13 05:04:26;;;;;;;31.50;7.90;;;-1.40;98.00;;;;;;5035757;28;20583;-66
2024/01/13 05:06:54;;;;;;;20.43;7.20;;;-1.40;98.00;;;;;;5053450;28;20462;-67
2024/01/13 05:09:21;;;;;;;29.90;8.80;;;-1.20;98.00;;;;;;5035520;28;20552;-66
2024/01/13 05:11:50;;;;;;;27.57;9.20;;;-1.20;98.00;;;;;;5052978;28;20449;-66
2024/01/13 05:14:19;;;;;;;23.23;7.37;;;-1.40;98.00;;;;;;5035009;28;20464;-66
2024/01/13 05:16:46;;;;;;;26.70;7.93;;;-1.30;98.00;;;;;;5052716;28;20494;-66
2024/01/13 05:19:13;;;;;;;25.17;8.43;;;-1.20;98.00;;;;;;5052763;28;20799;-66
2024/01/13 05:21:40;;;;;;;28.00;7.07;;;-1.30;98.00;;;;;;5053078;28;20447;-66
2024/01/13 05:24:08;;;;;;;23.00;7.80;;;-1.30;98.00;;;;;;5052631;28;20506;-66
2024/01/13 05:26:35;;;;;;;28.60;7.77;;;-1.50;98.00;;;;;;5034789;28;20448;-67
2024/01/13 05:29:04;;;;;;;26.30;8.17;;;-1.60;98.00;;;;;;5052375;28;20968;-67
2024/01/13 05:31:31;;;;;;;23.07;7.40;;;-1.50;98.00;;;;;;5052747;28;20475;-67
2024/01/13 05:33:58;;;;;;;23.73;6.50;;;-1.50;98.00;;;;;;5052577;28;20450;-67
2024/01/13 05:36:25;;;;;;;37.90;9.47;;;-1.40;98.00;;;;;;5034579;28;20451;-66
2024/01/13 05:38:52;;;;;;;27.03;7.90;;;-1.30;98.00;;;;;;5052456;28;20456;-66
2024/01/13 05:41:19;;;;;;;22.20;6.83;;;-1.20;98.00;;;;;;5052343;28;20457;-66
2024/01/13 05:43:46;;;;;;;31.50;7.40;;;-1.40;98.00;;;;;;5034473;28;20463;-66
2024/01/13 05:46:15;;;;;;;19.47;7.00;;;-1.50;98.00;;;;;;5052336;28;20733;-67
2024/01/13 05:48:42;;;;;;;24.73;7.17;;;-1.60;98.00;;;;;;5052651;28;20450;-67
2024/01/13 05:51:09;;;;;;;20.77;6.73;;;-1.60;98.00;;;;;;5052709;28;20460;-66
2024/01/13 05:53:37;;;;;;;30.10;8.03;;;-1.60;98.00;;;;;;5052334;28;20860;-67
2024/01/13 05:56:06;;;;;;;20.30;6.53;;;-1.60;98.00;;;;;;5052701;28;20459;-66
2024/01/13 05:58:33;;;;;;;24.20;7.80;;;-1.60;98.00;;;;;;5052815;28;20483;-66
2024/01/13 06:01:00;;;;;;;27.83;7.63;;;-1.50;98.00;;;;;;5035250;28;20790;-67
2024/01/13 06:03:28;;;;;;;27.27;8.40;;;-1.50;98.00;;;;;;5035761;28;20466;-66
2024/01/13 06:05:55;;;;;;;16.83;6.00;;;-1.70;98.00;;;;;;5052831;28;20465;-67
2024/01/13 06:08:23;;;;;;;21.70;7.20;;;-1.60;98.00;;;;;;5052289;28;20445;-67
2024/01/13 06:10:53;;;;;;;21.47;7.20;;;-1.40;98.00;;;;;;5052850;28;20969;-66
2024/01/13 06:13:20;;;;;;;29.03;8.43;;;-1.30;98.00;;;;;;5052601;28;20457;-67
2024/01/13 06:15:47;;;;;;;23.23;7.53;;;-1.40;98.00;;;;;;5052188;28;20454;-67
2024/01/13 06:18:16;;;;;;;29.07;8.83;;;-1.30;98.00;;;;;;5051895;28;20563;-67
2024/01/13 06:20:47;;;;;;;19.73;6.43;;;-1.30;98.00;;;;;;5052108;28;20462;-66
2024/01/13 06:23:14;;;;;;;23.57;7.80;;;-1.40;98.00;;;;;;5033127;28;20551;-66
2024/01/13 06:25:41;;;;;;;25.63;7.63;;;-1.40;98.00;;;;;;5051335;28;20460;-66
2024/01/13 06:28:09;;;;;;;36.37;8.13;;;-1.40;98.00;;;;;;5051807;28;20451;-66
2024/01/13 06:30:36;;;;;;;23.60;8.40;;;-1.50;98.00;;;;;;5051598;28;20467;-67
2024/01/13 06:33:03;;;;;;;26.70;7.20;;;-1.50;98.00;;;;;;5051726;28;20455;-66
2024/01/13 06:35:30;;;;;;;29.40;8.23;;;-1.50;98.00;;;;;;5051634;28;20496;-66
2024/01/13 06:37:59;;;;;;;31.33;7.90;;;-1.60;98.00;;;;;;5051668;28;20491;-67
2024/01/13 06:40:26;;;;;;;31.97;9.60;;;-1.60;98.00;;;;;;5033556;28;20542;-66
2024/01/13 06:42:53;;;;;;;37.70;10.50;;;-1.60;98.00;;;;;;5051535;28;20817;-66
2024/01/13 06:45:20;;;;;;;29.80;7.90;;;-1.60;98.00;;;;;;5051331;28;20466;-66
2024/01/13 06:47:47;;;;;;;39.40;10.63;;;-1.40;98.00;;;;;;5051299;28;20462;-67
2024/01/13 06:50:14;;;;;;;30.63;8.90;;;-1.30;98.00;;;;;;5051349;28;20463;-66
2024/01/13 06:52:41;;;;;;;30.30;7.93;;;-1.30;98.00;;;;;;5051648;28;20949;-66
2024/01/13 06:55:24;;;;;;;35.73;10.07;;;-1.20;98.00;;;;;;5051403;28;20465;-66
2024/01/13 06:57:52;;;;;;;27.63;8.77;;;-1.20;98.00;;;;;;5051533;28;20588;-66
2024/01/13 07:00:22;;;;;;;34.23;9.90;;;-1.30;98.00;;;;;;5051526;28;20463;-68
2024/01/13 07:02:49;;;;;;;37.07;9.67;;;-1.20;98.00;;;;;;5051418;28;20456;-68
2024/01/13 07:05:17;;;;;;;25.43;8.57;;;-1.40;98.00;;;;;;5051122;28;20477;-68
2024/01/13 07:07:44;;;;;;;35.33;11.07;;;-1.50;98.00;;;;;;5033648;28;20801;-67
2024/01/13 07:10:13;;;;;;;32.03;9.63;;;-1.60;98.00;;;;;;5051086;28;20212;-68
2024/01/13 07:12:40;;;;;;;29.87;9.37;;;-1.70;98.00;;;;;;5051331;28;20454;-68
2024/01/13 07:15:08;;;;;;;31.93;9.33;;;-1.50;98.00;;;;;;5050401;28;20953;-68
2024/01/13 07:17:35;;;;;;;33.50;10.10;;;-1.50;98.00;;;;;;5033441;28;20482;-68
2024/01/13 07:20:03;;;;;;;40.20;10.67;;;-1.30;98.00;;;;;;5051059;28;20456;-68
2024/01/13 07:22:30;;;;;;;32.73;10.07;;;-1.40;98.00;;;;;;5051061;28;20941;-68
2024/01/13 07:24:57;;;;;;;32.97;11.10;;;-1.50;98.00;;;;;;5050990;28;20456;-68
2024/01/13 07:27:25;;;;;;;46.67;9.70;;;-1.60;98.00;;;;;;5050762;28;20457;-68
2024/01/13 07:29:52;;;;;;;45.70;12.10;;;-1.60;98.00;;;;;;5050618;28;20463;-68
2024/01/13 07:32:19;;;;;;;39.37;11.63;;;-1.40;98.00;;;;;;5050744;28;20448;-68
2024/01/13 07:34:47;;;;;;;44.87;11.03;;;-1.40;98.00;;;;;;5050755;28;20458;-68
2024/01/13 07:37:14;;;;;;;37.73;11.23;;;-1.40;98.00;;;;;;5034827;28;20491;-67
2024/01/13 07:39:41;;;;;;;45.10;11.80;;;-1.30;98.00;;;;;;5054896;28;20462;-68
2024/01/13 07:42:08;;;;;;;37.23;10.43;;;-1.40;98.00;;;;;;5054851;28;20953;-68
2024/01/13 07:44:36;;;;;;;33.97;8.90;;;-1.30;98.00;;;;;;5054856;28;20747;-68
2024/01/13 07:47:04;;;;;;;38.40;11.17;;;-1.30;98.00;;;;;;5054562;28;20967;-67
2024/01/13 07:49:31;;;;;;;36.70;10.47;;;-1.20;98.00;;;;;;5054698;28;20459;-69
2024/01/13 07:51:58;;;;;;;38.73;11.53;;;-1.20;98.00;;;;;;5054652;28;20454;-68
2024/01/13 07:54:25;;;;;;;43.40;10.50;;;-1.20;98.00;;;;;;5036670;28;20810;-68
2024/01/13 07:56:54;;;;;;;40.63;10.43;;;-1.20;98.00;;;;;;5054461;28;20453;-68
2024/01/13 07:59:21;;;;;;;36.93;10.40;;;-1.40;98.00;;;;;;5054233;28;20470;-69
2024/01/13 08:01:50;;;;;;;32.00;9.63;;;-1.30;98.00;;;;;;5054553;28;20585;-68
2024/01/13 08:04:17;;;;;;;32.17;8.77;;;-1.40;98.00;;;;;;5036516;28;20504;-68
2024/01/13 08:06:45;;;;;;;34.10;10.50;;;-1.40;98.00;;;;;;5054349;28;20447;-68
2024/01/13 08:09:12;;;;;;;31.30;8.97;;;-1.60;98.00;;;;;;5054096;28;20463;-68
2024/01/13 08:11:39;;;;;;;34.70;9.98;;;-1.70;98.00;;;;;;5054290;28;20455;-68
2024/01/13 08:14:07;;;;;;;31.20;9.38;;;-1.70;98.00;;;;;;5054132;28;20662;-68
2024/01/13 08:16:34;;;;;;;33.20;8.90;;;-1.60;98.00;;;;;;5054351;28;20209;-67
2024/01/13 08:19:02;;;;;;;41.10;9.67;;;-1.60;98.00;;;;;;5054215;28;20482;-68
2024/01/13 08:21:29;;;;;;;31.17;9.27;;;-1.60;98.00;;;;;;5053984;28;20460;-68
2024/01/13 08:23:57;;;;;;;30.23;9.40;;;-1.50;98.00;;;;;;5053993;28;20953;-68
2024/01/13 08:26:25;;;;;;;24.73;8.73;;;-1.60;98.00;;;;;;5053847;28;20980;-68
2024/01/13 08:28:53;;;;;;;31.90;10.25;;;-1.60;98.00;;;;;;5036430;28;20460;-68
2024/01/13 08:31:20;;;;;;;43.00;10.77;;;-1.70;98.00;;;;;;5053690;28;20209;-68
2024/01/13 08:33:47;;;;;;;36.53;10.05;;;-1.70;98.00;;;;;;5053911;28;20293;-67
2024/01/13 08:36:17;;;;;;;37.53;9.90;;;-1.70;98.00;;;;;;5053856;28;20641;-69
2024/01/13 08:38:44;;;;;;;82.00;11.03;;;-1.60;98.00;;;;;;5036278;28;20226;-69
2024/01/13 08:41:12;;;;;;;45.72;12.68;;;-1.60;98.00;;;;;;5053412;28;20461;-69
2024/01/13 08:43:40;;;;;;;40.17;12.87;;;-1.90;98.00;;;;;;5053909;28;20207;-68
2024/01/13 08:46:10;;;;;;;51.47;13.48;;;-1.90;98.00;;;;;;5053954;28;20456;-68
2024/01/13 08:48:37;;;;;;;46.17;13.63;;;-2.00;98.00;;;;;;5052769;28;20662;-68
2024/01/13 08:51:04;;;;;;;44.53;11.93;;;-2.00;98.00;;;;;;5053613;28;20200;-67
2024/01/13 08:53:33;;;;;;;51.90;12.00;;;-2.10;98.00;;;;;;5053510;28;20571;-68
2024/01/13 08:56:02;;;;;;;33.10;10.20;;;-2.10;98.00;;;;;;5053179;28;20230;-67
2024/01/13 08:58:30;;;;;;;37.63;10.47;;;-2.10;98.00;;;;;;5053143;28;20481;-67
2024/01/13 09:00:57;;;;;;;44.23;12.87;;;-2.00;98.00;;;;;;5053170;28;20506;-68
2024/01/13 09:03:25;;;;;;;44.33;12.40;;;-1.80;98.00;;;;;;5053266;28;20470;-67
2024/01/13 09:05:53;;;;;;;46.93;12.50;;;-1.80;98.00;;;;;;5052224;28;20456;-68
2024/01/13 09:08:20;;;;;;;43.37;12.70;;;-1.90;98.00;;;;;;5051745;28;20549;-67
2024/01/13 09:10:48;;;;;;;59.50;13.00;;;-1.80;98.00;;;;;;5052092;28;20863;-68
2024/01/13 09:13:15;;;;;;;41.70;10.60;;;-1.70;98.00;;;;;;5052023;28;20577;-67
2024/01/13 09:15:42;;;;;;;45.53;11.93;;;-1.70;98.00;;;;;;5052332;28;20612;-67
2024/01/13 09:18:14;;;;;;;45.30;11.60;;;-1.60;98.00;;;;;;5052320;28;20221;-68
2024/01/13 09:20:42;;;;;;;44.35;12.30;;;-1.60;98.00;;;;;;5053050;28;20461;-68
2024/01/13 09:23:09;;;;;;;43.60;13.20;;;-1.50;98.00;;;;;;5053803;28;20208;-68
2024/01/13 09:25:36;;;;;;;41.33;11.30;;;-1.50;98.00;;;;;;5053752;28;20458;-67
2024/01/13 09:28:05;;;;;;;42.55;11.40;;;-1.40;98.00;;;;;;5053368;28;20462;-68
2024/01/13 09:30:31;;;;;;;47.03;12.60;;;-1.40;98.00;;;;;;5053459;28;20207;-68
2024/01/13 09:32:59;;;;;;;47.60;12.83;;;-1.40;98.00;;;;;;5053408;28;20455;-67
2024/01/13 09:35:30;;;;;;;40.40;12.05;;;-1.80;98.00;;;;;;5053500;28;20466;-67
2024/01/13 09:37:57;;;;;;;45.92;13.63;;;-2.00;98.00;;;;;;5053436;28;20231;-67
2024/01/13 09:40:25;;;;;;;47.20;11.25;;;-1.90;98.00;;;;;;5053267;28;20296;-67
2024/01/13 09:43:06;;;;;;;39.20;11.35;;;-2.00;98.00;;;;;;5053185;28;20579;-68
2024/01/13 09:45:38;;;;;;;30.87;11.60;;;-1.80;98.00;;;;;;5053340;28;20231;-67
2024/01/13 09:48:09;;;;;;;41.23;12.53;;;-1.80;98.00;;;;;;5053111;28;20455;-68
2024/01/13 09:50:39;;;;;;;32.25;9.60;;;-2.00;98.00;;;;;;5053168;28;20454;-67
2024/01/13 09:53:08;;;;;;;43.72;10.55;;;-1.90;98.00;;;;;;5053134;28;20205;-68
2024/01/13 09:55:38;;;;;;;47.13;11.43;;;-1.80;98.00;;;;;;5053120;28;20204;-67
2024/01/13 09:58:06;;;;;;;35.97;10.43;;;-1.80;98.00;;;;;;5035285;28;20234;-68
2024/01/13 10:00:35;;;;;;;53.20;11.17;;;-1.90;98.00;;;;;;5052302;28;20458;-68
2024/01/13 10:03:02;;;;;;;43.00;12.10;;;-1.80;98.00;;;;;;5035083;28;21012;-68
2024/01/13 10:05:34;;;;;;;40.27;12.27;;;-1.70;98.00;;;;;;5052800;28;20938;-67
2024/01/13 10:08:01;;;;;;;36.53;9.90;;;-1.70;98.00;;;;;;5052783;28;20503;-67
2024/01/13 10:10:29;;;;;;;37.95;10.07;;;-1.80;98.00;;;;;;5052830;28;20203;-68
2024/01/13 10:12:56;;;;;;;30.08;10.02;;;-1.70;98.00;;;;;;5051969;28;20204;-67
2024/01/13 10:15:23;;;;;;;27.60;9.90;;;-1.60;98.00;;;;;;5052154;28;20200;-68
2024/01/13 10:17:53;;;;;;;40.70;10.90;;;-1.60;98.00;;;;;;5052297;28;20458;-68
2024/01/13 10:20:23;;;;;;;43.97;10.80;;;-1.60;98.00;;;;;;5052809;28;20263;-67
2024/01/13 10:22:50;;;;;;;41.23;12.23;;;-1.60;98.00;;;;;;5052485;28;20526;-68
2024/01/13 10:25:17;;;;;;;40.70;11.73;;;-1.50;98.00;;;;;;5052225;28;20463;-68
2024/01/13 10:27:46;;;;;;;36.67;10.80;;;-1.40;98.00;;;;;;5052972;28;20842;-67
2024/01/13 10:30:15;;;;;;;37.27;9.87;;;-1.40;98.00;;;;;;5028432;28;20459;-68
2024/01/13 10:32:48;;;;;;;36.23;11.17;;;-1.40;98.00;;;;;;5032012;28;20989;-67
2024/01/13 10:35:25;;;;;;;37.60;12.17;;;-1.40;98.00;;;;;;5032662;28;20958;-69
2024/01/13 20:23:57;;;;;;;19.17;7.27;;;-0.90;98.00;;;;;;5216137;22;20531;-68
2024/01/13 20:26:24;;;;;;;37.28;9.88;;;-0.90;98.00;;;;;;5025526;28;20447;-67
2024/01/13 20:28:52;;;;;;;22.97;7.43;;;-0.90;98.00;;;;;;5016336;28;20231;-67
2024/01/13 20:31:20;;;;;;;25.73;8.30;;;-0.90;98.00;;;;;;5016506;28;20451;-67
2024/01/13 20:33:48;;;;;;;24.27;8.73;;;-1.00;98.00;;;;;;5034842;28;20457;-67
2024/01/13 20:36:15;;;;;;;28.85;9.20;;;-1.10;98.00;;;;;;5034716;28;20208;-67
2024/01/13 20:38:42;;;;;;;26.40;8.50;;;-1.10;98.00;;;;;;5034656;28;20570;-67
2024/01/13 20:41:11;;;;;;;26.05;7.57;;;-1.20;98.00;;;;;;5034055;28;20448;-67
2024/01/13 20:43:38;;;;;;;25.67;8.85;;;-1.20;98.00;;;;;;5033744;28;20197;-67
2024/01/13 20:46:05;;;;;;;22.30;7.68;;;-1.20;98.00;;;;;;5034840;28;20203;-67
2024/01/13 20:48:32;;;;;;;31.30;9.02;;;-1.30;98.00;;;;;;5034617;28;20211;-67
2024/01/13 20:50:59;;;;;;;23.07;7.33;;;-1.40;98.00;;;;;;5034569;28;20196;-67
2024/01/13 20:53:26;;;;;;;20.33;7.88;;;-1.40;98.00;;;;;;5034030;28;20797;-67
2024/01/13 20:55:54;;;;;;;25.52;8.88;;;-1.40;98.00;;;;;;5034120;28;20211;-67
2024/01/13 20:58:23;;;;;;;22.10;8.43;;;-1.50;98.00;;;;;;5016835;28;20200;-67
2024/01/13 21:00:51;;;;;;;25.63;8.02;;;-1.60;98.00;;;;;;5034709;28;20204;-67
2024/01/13 21:03:18;;;;;;;23.23;7.30;;;-1.60;98.00;;;;;;5016937;28;20209;-67
2024/01/13 21:05:45;;;;;;;33.58;8.70;;;-1.70;98.00;;;;;;5034457;28;20204;-67
2024/01/13 21:08:12;;;;;;;32.90;8.18;;;-1.70;98.00;;;;;;5034376;28;20565;-67
2024/01/13 21:10:39;;;;;;;25.50;8.30;;;-1.80;98.00;;;;;;5034646;28;20206;-67
2024/01/13 21:13:06;;;;;;;34.25;10.18;;;-1.80;98.00;;;;;;5034250;28;20203;-67
2024/01/13 21:15:35;;;;;;;27.30;8.03;;;-1.70;98.00;;;;;;5034019;28;20204;-67
2024/01/13 21:18:02;;;;;;;25.53;8.60;;;-1.60;98.00;;;;;;5034346;28;20465;-67
2024/01/13 21:20:30;;;;;;;30.63;8.07;;;-1.60;98.00;;;;;;5033892;28;20492;-67
2024/01/13 21:22:57;;;;;;;32.50;9.27;;;-1.50;98.00;;;;;;5033516;28;20488;-66
2024/01/13 21:25:25;;;;;;;29.00;8.50;;;-1.60;98.00;;;;;;4999836;28;20445;-67
2024/01/13 21:27:53;;;;;;;26.63;8.63;;;-1.50;98.00;;;;;;5034013;28;20581;-67
2024/01/13 21:30:20;;;;;;;28.33;8.40;;;-1.60;98.00;;;;;;5033798;28;20452;-67
2024/01/13 21:32:48;;;;;;;29.60;8.33;;;-1.70;98.00;;;;;;5016121;28;20452;-67
2024/01/13 21:35:16;;;;;;;27.00;9.43;;;-1.80;98.00;;;;;;5033371;28;20472;-67
2024/01/13 21:37:43;;;;;;;25.45;8.00;;;-1.70;98.00;;;;;;5033649;28;20550;-67
2024/01/13 21:40:13;;;;;;;30.93;8.77;;;-1.70;98.00;;;;;;5033524;28;20252;-67
2024/01/13 21:42:41;;;;;;;36.37;8.53;;;-1.70;98.00;;;;;;5033572;28;20451;-67
2024/01/13 21:45:10;;;;;;;26.47;9.83;;;-1.70;98.00;;;;;;5033226;28;20545;-67
2024/01/13 21:47:37;;;;;;;34.35;9.95;;;-1.60;98.00;;;;;;5033397;28;20456;-67
2024/01/13 21:50:07;;;;;;;32.35;8.63;;;-1.60;98.00;;;;;;5033169;28;20220;-67
2024/01/13 21:52:35;;;;;;;27.40;7.70;;;-1.70;98.00;;;;;;5033534;28;20541;-67
2024/01/13 21:55:02;;;;;;;19.50;7.70;;;-1.70;98.00;;;;;;5035496;28;20216;-67
2024/01/13 21:57:32;;;;;;;26.63;8.67;;;-1.60;98.00;;;;;;5051689;28;20944;-67
2024/01/13 21:59:59;;;;;;;21.47;7.40;;;-1.60;98.00;;;;;;5051871;28;21000;-67
2024/01/13 22:02:27;;;;;;;33.42;7.75;;;-1.70;98.00;;;;;;5053369;28;20459;-67
2024/01/13 22:04:54;;;;;;;25.07;8.50;;;-1.90;98.00;;;;;;5053302;28;20226;-67
2024/01/13 22:07:23;;;;;;;26.07;8.33;;;-2.00;98.00;;;;;;5052959;28;20482;-67
2024/01/13 22:09:58;;;;;;;16.88;6.45;;;-2.00;98.00;;;;;;5053045;28;20455;-67
2024/01/13 22:12:27;;;;;;;22.80;7.32;;;-2.00;98.00;;;;;;5053237;28;20207;-67
2024/01/13 22:14:55;;;;;;;24.98;7.35;;;-2.00;98.00;;;;;;5052587;28;20196;-67
2024/01/13 22:17:22;;;;;;;19.15;7.35;;;-2.00;98.00;;;;;;5052743;28;20218;-67
2024/01/13 22:19:50;;;;;;;26.00;8.30;;;-1.90;98.00;;;;;;5052592;28;20228;-67
2024/01/13 22:22:17;;;;;;;25.30;7.27;;;-1.90;98.00;;;;;;5034977;28;20454;-67
2024/01/13 22:24:46;;;;;;;32.23;8.40;;;-1.90;98.00;;;;;;5052568;28;20458;-67
2024/01/13 22:27:13;;;;;;;26.27;7.68;;;-2.00;98.00;;;;;;5052596;28;20462;-67